Time;durP1;ratioP1;P1;durP2;ratioP2;P2;SDS_P1;SDS_P2;PMS_P1;PMS_P2;Temp;Humidity;BMP_temperature;BMP_pressure;BME280_temperature;BME280_humidity;BME280_pressure;Samples;Min_cycle;Max_cycle;Signal;HPM_P1;HPM_P2
2022/01/24 00:02:26;;;;;;;9.50;7.78;;;16.60;39.50;;;;;;5099969;28;20069;-37
2022/01/24 00:04:52;;;;;;;7.97;6.90;;;16.60;39.50;;;;;;5100207;28;20026;-37
2022/01/24 00:07:21;;;;;;;8.43;7.40;;;16.60;39.60;;;;;;5100969;28;20037;-37
2022/01/24 00:09:49;;;;;;;8.35;7.40;;;16.50;39.40;;;;;;5099090;28;20023;-38
2022/01/24 00:12:19;;;;;;;9.50;7.80;;;16.50;39.50;;;;;;5098898;28;20032;-37
2022/01/24 00:18:03;;;;;;;8.52;7.63;;;16.50;39.50;;;;;;5063315;28;20028;-37
2022/01/24 00:28:24;;;;;;;9.15;7.95;;;16.50;39.50;;;;;;5098306;28;20054;-38
2022/01/24 00:30:51;;;;;;;9.15;7.63;;;16.50;39.60;;;;;;5079091;28;20023;-36
2022/01/24 00:33:19;;;;;;;8.80;7.90;;;16.50;39.60;;;;;;5097765;28;20040;-36
2022/01/24 00:35:45;;;;;;;8.82;7.72;;;16.50;39.60;;;;;;5097472;28;20095;-36
2022/01/24 00:38:10;;;;;;;8.90;7.93;;;16.50;39.60;;;;;;5098423;28;20036;-38
2022/01/24 00:40:40;;;;;;;9.05;7.95;;;16.50;39.60;;;;;;5099970;28;20025;-37
2022/01/24 00:43:18;;;;;;;8.45;7.55;;;16.50;39.50;;;;;;5099922;28;20016;-37
2022/01/24 00:46:01;;;;;;;8.43;7.43;;;16.50;39.60;;;;;;5099859;28;20021;-37
2022/01/24 00:56:10;;;;;;;9.45;7.53;;;16.40;39.60;;;;;;5097003;28;20021;-37
2022/01/24 00:58:36;;;;;;;8.80;7.88;;;16.50;39.70;;;;;;5096743;28;20020;-36
2022/01/24 01:01:02;;;;;;;9.70;7.95;;;16.40;39.60;;;;;;5079528;28;20043;-36
2022/01/24 01:03:29;;;;;;;9.00;7.90;;;16.40;39.60;;;;;;5097081;28;20065;-37
2022/01/24 01:06:08;;;;;;;10.07;7.78;;;16.50;39.70;;;;;;5096089;28;20016;-37
2022/01/24 01:19:32;;;;;;;9.55;8.10;;;16.40;39.80;;;;;;5095269;28;20051;-36
2022/01/24 01:21:57;;;;;;;9.25;7.57;;;16.40;39.70;;;;;;5095130;28;20474;-36
2022/01/24 01:24:25;;;;;;;8.65;7.60;;;16.40;39.60;;;;;;5095859;28;20081;-36
2022/01/24 01:27:15;;;;;;;8.68;7.50;;;16.40;39.70;;;;;;5078064;28;20073;-37
2022/01/24 01:54:09;;;;;;;8.68;7.47;;;16.30;39.80;;;;;;5068346;28;20044;-37
2022/01/24 01:56:35;;;;;;;7.85;7.05;;;16.30;39.70;;;;;;5097308;28;20051;-37
2022/01/24 01:59:02;;;;;;;8.75;7.85;;;16.30;39.80;;;;;;5096002;28;20561;-36
2022/01/24 02:01:28;;;;;;;9.63;7.70;;;16.30;39.70;;;;;;5096056;28;20830;-35
2022/01/24 02:03:54;;;;;;;9.02;7.43;;;16.30;39.70;;;;;;5095994;28;20038;-35
2022/01/24 02:06:23;;;;;;;8.02;7.22;;;16.30;39.70;;;;;;5096171;28;20050;-37
2022/01/24 02:09:07;;;;;;;8.70;7.20;;;16.30;39.70;;;;;;5095106;28;20016;-36
2022/01/24 02:11:33;;;;;;;8.45;7.38;;;16.30;39.60;;;;;;5095179;28;20099;-37
2022/01/24 02:14:05;;;;;;;8.15;7.20;;;16.30;39.70;;;;;;5095260;28;20024;-37
2022/01/24 02:16:42;;;;;;;8.52;7.63;;;16.30;39.60;;;;;;5094791;28;20483;-37
2022/01/24 02:19:35;;;;;;;8.98;8.07;;;16.30;39.60;;;;;;5095395;28;20008;-36
2022/01/24 02:24:37;;;;;;;9.13;7.55;;;16.20;39.50;;;;;;5094582;28;20035;-36
2022/01/24 02:27:03;;;;;;;8.30;6.72;;;16.30;39.60;;;;;;5094840;28;20095;-37
2022/01/24 02:32:08;;;;;;;8.35;7.30;;;16.20;39.60;;;;;;5094837;28;20066;-36
2022/01/24 02:34:37;;;;;;;8.30;7.40;;;16.20;39.60;;;;;;5094788;28;20429;-38
2022/01/24 02:37:05;;;;;;;8.63;7.68;;;16.20;39.70;;;;;;5095662;28;20096;-37
2022/01/24 02:39:45;;;;;;;8.23;7.20;;;16.20;39.70;;;;;;5095631;28;20004;-38
2022/01/24 02:50:21;;;;;;;8.63;7.05;;;16.20;39.60;;;;;;5097161;28;20054;-38
2022/01/24 02:52:47;;;;;;;7.50;6.47;;;16.20;39.50;;;;;;5096706;28;20040;-37
2022/01/24 02:55:13;;;;;;;8.30;7.13;;;16.20;39.60;;;;;;5097375;28;20036;-37
2022/01/24 02:57:39;;;;;;;7.65;6.85;;;16.20;39.60;;;;;;5099499;28;20022;-36
2022/01/24 03:00:05;;;;;;;8.13;7.15;;;16.20;39.60;;;;;;5084065;28;20538;-35
2022/01/24 03:02:32;;;;;;;8.38;7.13;;;16.20;39.60;;;;;;5066971;28;20119;-36
2022/01/24 03:04:58;;;;;;;7.60;6.38;;;16.20;39.60;;;;;;5102429;28;20039;-36
2022/01/24 03:07:25;;;;;;;8.00;7.05;;;16.20;39.50;;;;;;5101504;28;20026;-36
2022/01/24 03:09:54;;;;;;;8.02;6.65;;;16.20;39.60;;;;;;5102834;28;20058;-36
2022/01/24 03:12:59;;;;;;;8.70;7.30;;;16.10;39.50;;;;;;5102326;28;20021;-37
2022/01/24 03:15:12;;;;;;;7.50;6.50;;;16.20;39.60;;;;;;5099514;28;20506;-37
2022/01/24 03:17:39;;;;;;;8.18;6.93;;;16.10;39.60;;;;;;5104209;28;20023;-36
2022/01/24 03:20:05;;;;;;;8.00;6.85;;;16.10;39.60;;;;;;5105237;28;20005;-36
2022/01/24 03:22:31;;;;;;;8.20;6.88;;;16.10;39.60;;;;;;5088009;28;20487;-37
2022/01/24 03:24:57;;;;;;;7.80;7.00;;;16.10;39.50;;;;;;5085335;28;20030;-36
2022/01/24 03:27:23;;;;;;;9.07;7.35;;;16.10;39.50;;;;;;5101794;28;20087;-36
2022/01/24 03:29:49;;;;;;;7.72;6.70;;;16.10;39.50;;;;;;5101390;28;20036;-36
2022/01/24 03:32:16;;;;;;;8.65;6.75;;;16.10;39.50;;;;;;5101313;28;20703;-38
2022/01/24 03:34:41;;;;;;;8.07;6.80;;;16.10;39.40;;;;;;5100902;28;20080;-38
2022/01/24 03:37:08;;;;;;;7.97;6.88;;;16.10;39.50;;;;;;5101179;28;20036;-36
2022/01/24 03:39:34;;;;;;;7.50;6.30;;;16.10;39.50;;;;;;5084012;28;20023;-37
2022/01/24 03:42:00;;;;;;;7.65;6.65;;;16.10;39.50;;;;;;5102809;28;20024;-37
2022/01/24 03:44:28;;;;;;;7.55;6.75;;;16.10;39.40;;;;;;5067671;28;20024;-36
2022/01/24 03:47:12;;;;;;;7.60;6.80;;;16.10;39.50;;;;;;5102441;28;20021;-36
2022/01/24 03:49:48;;;;;;;7.15;6.43;;;16.10;39.40;;;;;;5102597;28;20024;-37
2022/01/24 03:52:15;;;;;;;7.65;6.68;;;16.10;39.40;;;;;;5102870;28;20032;-36
2022/01/24 03:54:45;;;;;;;7.90;6.72;;;16.10;39.30;;;;;;5100988;28;20073;-37
2022/01/24 03:57:12;;;;;;;7.82;7.03;;;16.10;39.50;;;;;;5100457;28;20038;-37
2022/01/24 03:59:38;;;;;;;8.50;6.68;;;16.10;39.40;;;;;;5100317;28;20091;-36
2022/01/24 04:02:04;;;;;;;8.38;7.10;;;16.00;39.40;;;;;;5082531;28;20055;-37
2022/01/24 04:04:30;;;;;;;7.68;6.68;;;16.00;39.90;;;;;;5100518;28;20032;-36
2022/01/24 04:06:56;;;;;;;7.55;6.43;;;16.00;39.30;;;;;;5100894;28;20016;-37
2022/01/24 04:09:24;;;;;;;7.15;6.45;;;16.10;39.30;;;;;;5105517;28;20147;-38
2022/01/24 04:11:55;;;;;;;7.53;6.72;;;16.10;39.40;;;;;;5106889;28;20024;-37
2022/01/24 04:17:20;;;;;;;7.63;6.47;;;16.10;39.40;;;;;;5107240;28;20077;-37
2022/01/24 04:22:26;;;;;;;7.32;6.47;;;16.20;39.10;;;;;;5106636;28;20028;-36
2022/01/24 04:24:59;;;;;;;7.53;6.70;;;16.20;38.90;;;;;;5106424;28;20065;-36
2022/01/24 04:27:25;;;;;;;7.53;6.50;;;16.30;38.90;;;;;;5106593;28;20038;-36
2022/01/24 04:29:52;;;;;;;6.75;6.05;;;16.30;38.80;;;;;;5107091;28;20031;-36
2022/01/24 04:32:19;;;;;;;7.38;6.68;;;16.50;38.50;;;;;;5106790;28;20028;-36
2022/01/24 04:34:45;;;;;;;6.53;5.72;;;16.70;38.20;;;;;;5088757;28;20047;-36
2022/01/24 04:37:12;;;;;;;6.90;6.20;;;16.70;38.10;;;;;;5106986;28;20056;-37
2022/01/24 04:39:39;;;;;;;6.32;5.72;;;16.80;37.80;;;;;;5087919;28;20019;-36
2022/01/24 04:42:13;;;;;;;6.80;6.05;;;16.90;37.70;;;;;;5105205;28;20016;-37
2022/01/24 04:44:52;;;;;;;6.75;6.05;;;17.00;37.50;;;;;;5104990;28;20024;-36
2022/01/24 04:52:40;;;;;;;6.32;5.72;;;17.30;36.80;;;;;;5104199;28;20039;-37
2022/01/24 04:55:06;;;;;;;7.38;6.22;;;17.50;36.50;;;;;;5102927;28;20486;-37
2022/01/24 04:57:32;;;;;;;6.20;5.60;;;17.60;36.20;;;;;;5103529;28;20526;-37
2022/01/24 04:59:59;;;;;;;6.00;5.40;;;17.70;36.00;;;;;;5085939;28;20032;-37
2022/01/24 05:02:26;;;;;;;7.97;5.70;;;17.80;35.80;;;;;;5103536;28;20016;-36
2022/01/24 05:04:53;;;;;;;6.22;5.57;;;17.90;35.60;;;;;;5103200;28;20023;-36
2022/01/24 05:07:21;;;;;;;6.95;5.82;;;18.00;35.50;;;;;;5085353;28;20486;-36
2022/01/24 05:10:15;;;;;;;6.43;5.30;;;18.10;35.30;;;;;;5084965;28;20066;-36
2022/01/24 05:26:00;;;;;;;6.05;5.43;;;18.70;34.20;;;;;;5098615;28;20098;-36
2022/01/24 05:28:26;;;;;;;7.47;5.13;;;18.80;34.00;;;;;;5098497;28;20020;-36
2022/01/24 05:30:52;;;;;;;5.78;4.97;;;18.90;33.90;;;;;;5099191;28;20020;-38
2022/01/24 05:33:18;;;;;;;6.03;5.35;;;18.90;33.70;;;;;;5099276;28;20016;-37
2022/01/24 05:35:44;;;;;;;6.50;5.00;;;19.00;33.50;;;;;;5081367;28;20020;-35
2022/01/24 05:38:13;;;;;;;5.72;5.10;;;19.10;33.40;;;;;;5081166;28;20016;-36
2022/01/24 05:40:38;;;;;;;6.50;5.30;;;19.20;33.30;;;;;;5099705;28;20501;-36
2022/01/24 05:43:12;;;;;;;7.82;5.20;;;19.20;33.10;;;;;;5100548;28;20028;-36
2022/01/24 05:45:41;;;;;;;5.53;4.93;;;19.30;32.90;;;;;;5099789;28;20020;-36
2022/01/24 05:48:07;;;;;;;6.30;4.95;;;19.40;32.80;;;;;;5100690;28;20020;-36
2022/01/24 05:50:32;;;;;;;5.65;4.90;;;19.50;32.80;;;;;;5099746;28;20080;-36
2022/01/24 05:52:59;;;;;;;6.80;5.03;;;19.60;32.60;;;;;;5081806;28;20032;-36
2022/01/24 05:55:25;;;;;;;5.50;4.47;;;19.60;32.40;;;;;;5099665;28;20040;-37
2022/01/24 05:57:53;;;;;;;5.57;4.70;;;19.80;32.30;;;;;;5100297;28;20101;-36
2022/01/24 06:00:19;;;;;;;5.75;4.68;;;19.80;32.20;;;;;;5100766;28;20448;-36
2022/01/24 06:02:45;;;;;;;5.47;4.80;;;19.90;32.10;;;;;;5100592;28;20016;-37
2022/01/24 06:05:11;;;;;;;5.72;4.75;;;19.90;32.00;;;;;;5100313;28;20038;-36
2022/01/24 06:07:37;;;;;;;6.10;4.80;;;20.00;31.90;;;;;;5100486;28;20027;-36
2022/01/24 06:10:05;;;;;;;6.00;4.70;;;20.10;31.80;;;;;;5102293;28;20024;-36
2022/01/24 06:12:31;;;;;;;5.72;4.60;;;20.10;31.70;;;;;;5101938;28;20028;-37
2022/01/24 06:14:57;;;;;;;5.93;4.53;;;20.20;31.60;;;;;;5101849;28;20023;-36
2022/01/24 06:17:23;;;;;;;5.53;4.90;;;20.30;31.50;;;;;;5102961;28;20016;-36
2022/01/24 06:19:48;;;;;;;5.75;4.60;;;20.30;31.40;;;;;;5085165;28;20020;-37
2022/01/24 06:22:14;;;;;;;5.60;4.70;;;20.40;31.30;;;;;;5082866;28;20036;-36
2022/01/24 06:24:40;;;;;;;5.00;4.50;;;20.50;31.20;;;;;;5082250;28;20024;-35
2022/01/24 06:27:08;;;;;;;6.75;4.78;;;20.50;31.00;;;;;;5097539;28;20047;-36
2022/01/24 06:29:35;;;;;;;5.80;4.72;;;20.60;31.00;;;;;;5097083;28;20016;-36
2022/01/24 06:32:01;;;;;;;6.22;5.00;;;20.60;30.80;;;;;;5096188;28;20035;-36
2022/01/24 06:34:27;;;;;;;5.25;4.75;;;20.70;30.70;;;;;;5078396;28;20016;-36
2022/01/24 06:36:53;;;;;;;6.93;4.55;;;20.70;30.60;;;;;;5078481;28;20023;-36
2022/01/24 06:39:19;;;;;;;5.85;4.88;;;20.80;30.60;;;;;;5095700;28;20446;-35
2022/01/24 06:41:52;;;;;;;6.68;4.72;;;20.80;30.50;;;;;;5094631;28;20012;-36
2022/01/24 06:44:18;;;;;;;5.47;4.50;;;20.90;30.50;;;;;;5093856;28;20023;-35
2022/01/24 06:46:44;;;;;;;5.20;4.63;;;21.00;30.40;;;;;;5076549;28;20091;-36
2022/01/24 06:49:10;;;;;;;5.75;4.30;;;21.00;30.30;;;;;;5094262;28;20024;-36
2022/01/24 06:51:36;;;;;;;5.10;4.45;;;21.10;30.20;;;;;;5076026;28;20020;-36
2022/01/24 06:54:03;;;;;;;6.53;4.72;;;21.10;30.10;;;;;;5077477;28;20391;-38
2022/01/24 06:56:29;;;;;;;5.22;4.70;;;21.10;30.10;;;;;;5077625;28;20034;-38
2022/01/24 06:58:55;;;;;;;5.63;4.72;;;21.20;30.00;;;;;;5095313;28;20020;-37
2022/01/24 07:01:22;;;;;;;5.40;4.28;;;21.20;30.00;;;;;;5094699;28;20016;-38
2022/01/24 07:03:47;;;;;;;5.63;4.63;;;21.20;30.00;;;;;;5077268;28;20110;-40
2022/01/24 07:06:13;;;;;;;5.00;4.25;;;21.30;30.00;;;;;;5094746;28;20016;-39
2022/01/24 07:08:40;;;;;;;5.55;4.40;;;21.30;30.00;;;;;;5093750;28;20016;-38
2022/01/24 07:11:06;;;;;;;5.60;4.68;;;21.30;29.90;;;;;;5093529;28;20031;-40
2022/01/24 07:13:32;;;;;;;5.78;4.40;;;21.30;29.90;;;;;;5093954;28;20028;-36
2022/01/24 07:16:03;;;;;;;5.93;4.68;;;21.40;29.90;;;;;;5095366;28;20024;-38
2022/01/24 07:21:00;;;;;;;8.07;4.65;;;21.40;29.80;;;;;;5075451;28;20178;-37
2022/01/24 07:23:26;;;;;;;5.47;4.53;;;21.40;29.80;;;;;;5092100;28;20058;-36
2022/01/24 07:25:54;;;;;;;8.07;4.60;;;21.30;29.80;;;;;;5092652;28;20028;-37
2022/01/24 07:28:20;;;;;;;13.18;5.93;;;20.60;30.70;;;;;;5074136;28;20012;-37
2022/01/24 07:30:48;;;;;;;8.85;5.10;;;19.90;32.90;;;;;;5074591;28;20027;-37
2022/01/24 07:33:14;;;;;;;9.32;5.30;;;19.40;33.10;;;;;;5074796;28;20482;-37
2022/01/24 07:35:41;;;;;;;8.65;6.28;;;19.00;33.70;;;;;;5092563;28;20016;-38
2022/01/24 07:38:09;;;;;;;13.15;7.07;;;18.70;33.80;;;;;;5092541;28;20043;-36
2022/01/24 07:40:42;;;;;;;20.17;8.13;;;18.50;34.00;;;;;;5074752;28;20447;-36
2022/01/24 07:43:12;;;;;;;17.85;8.90;;;17.80;35.10;;;;;;5092857;28;20016;-36
2022/01/24 07:45:40;;;;;;;16.33;8.45;;;17.30;36.20;;;;;;5095904;28;20103;-36
2022/01/24 07:48:09;;;;;;;17.20;10.27;;;17.20;36.80;;;;;;5096326;28;20065;-36
2022/01/24 07:50:36;;;;;;;18.17;10.38;;;16.70;35.70;;;;;;5077668;28;20015;-35
2022/01/24 07:53:03;;;;;;;17.63;9.95;;;16.30;37.00;;;;;;5095947;28;20024;-35
2022/01/24 07:55:33;;;;;;;22.00;10.40;;;15.90;38.00;;;;;;5095701;28;20035;-38
2022/01/24 07:57:59;;;;;;;18.00;11.73;;;15.80;38.10;;;;;;5078289;28;20103;-40
2022/01/24 08:00:28;;;;;;;21.48;11.68;;;15.60;38.60;;;;;;5077830;28;20153;-39
2022/01/24 08:02:57;;;;;;;21.55;13.32;;;15.40;39.10;;;;;;5061277;28;20082;-39
2022/01/24 08:05:24;;;;;;;17.00;11.55;;;15.40;39.50;;;;;;5095950;28;20012;-39
2022/01/24 08:07:51;;;;;;;17.75;12.13;;;15.40;39.70;;;;;;5095645;28;20146;-40
2022/01/24 08:10:20;;;;;;;17.08;11.10;;;15.20;40.10;;;;;;5077813;28;20463;-42
2022/01/24 08:12:48;;;;;;;24.92;11.13;;;15.20;40.30;;;;;;5095181;28;20105;-41
2022/01/24 08:15:14;;;;;;;20.17;11.88;;;15.50;40.20;;;;;;5095174;28;20023;-38
2022/01/24 08:17:46;;;;;;;26.48;10.93;;;15.40;40.80;;;;;;5077243;28;20482;-38
2022/01/24 08:20:12;;;;;;;26.02;10.73;;;16.10;40.40;;;;;;5077547;28;20016;-39
2022/01/24 08:22:39;;;;;;;18.35;9.52;;;16.50;39.60;;;;;;5077299;28;20051;-40
2022/01/24 08:25:05;;;;;;;19.35;9.75;;;16.60;38.90;;;;;;5077361;28;20012;-39
2022/01/24 08:27:34;;;;;;;14.80;9.68;;;16.90;38.40;;;;;;5095315;28;20047;-38
2022/01/24 08:30:07;;;;;;;20.80;9.85;;;17.20;36.90;;;;;;5077408;28;20020;-38
2022/01/24 08:32:33;;;;;;;16.50;9.93;;;17.30;36.90;;;;;;5094963;28;20032;-39
2022/01/24 08:35:00;;;;;;;15.25;9.60;;;17.30;36.50;;;;;;5095546;28;20008;-37
2022/01/24 08:37:26;;;;;;;18.83;10.13;;;17.60;35.90;;;;;;5094917;28;20023;-38
2022/01/24 08:39:52;;;;;;;19.48;9.85;;;17.70;35.40;;;;;;5094889;28;20069;-38
2022/01/24 08:42:27;;;;;;;22.42;10.95;;;17.90;34.70;;;;;;5094801;28;20016;-38
2022/01/24 08:47:26;;;;;;;15.68;9.18;;;18.20;34.00;;;;;;5077497;28;20039;-37
2022/01/24 08:50:00;;;;;;;13.65;9.32;;;18.30;33.60;;;;;;5076834;28;20034;-39
2022/01/24 08:52:27;;;;;;;11.70;9.68;;;18.40;33.40;;;;;;5094381;28;20154;-39
2022/01/24 08:54:55;;;;;;;12.88;9.68;;;18.50;33.10;;;;;;5075507;28;20089;-38
2022/01/24 08:57:25;;;;;;;13.77;10.30;;;18.50;33.00;;;;;;5094816;28;20028;-39
2022/01/24 08:59:53;;;;;;;13.00;9.57;;;18.60;32.80;;;;;;5077373;28;20100;-37
2022/01/24 09:02:20;;;;;;;20.60;10.93;;;18.60;32.80;;;;;;5077876;28;20021;-37
2022/01/24 09:04:48;;;;;;;15.93;10.98;;;18.30;33.20;;;;;;5078467;28;20027;-38
2022/01/24 09:07:16;;;;;;;20.02;10.35;;;17.30;35.50;;;;;;5096099;28;20046;-39
2022/01/24 09:09:42;;;;;;;15.55;10.07;;;17.70;34.50;;;;;;5078290;28;20020;-38
2022/01/24 09:12:12;;;;;;;16.80;10.73;;;18.10;33.60;;;;;;5077179;28;20032;-38
2022/01/24 09:14:47;;;;;;;19.10;10.43;;;18.30;33.00;;;;;;5096664;28;20072;-38
2022/01/24 09:17:13;;;;;;;16.05;10.80;;;18.50;32.40;;;;;;5078174;28;20008;-37
2022/01/24 09:19:39;;;;;;;15.13;10.65;;;18.60;31.80;;;;;;5096739;28;20020;-39
2022/01/24 09:22:05;;;;;;;17.40;10.32;;;18.70;31.50;;;;;;5094906;28;20359;-46
2022/01/24 09:24:31;;;;;;;17.60;10.70;;;18.80;31.40;;;;;;5059148;28;20028;-37
2022/01/24 09:27:03;;;;;;;15.18;11.32;;;18.90;31.20;;;;;;5076457;28;20047;-37
2022/01/24 09:29:31;;;;;;;13.23;10.20;;;18.90;31.10;;;;;;5076717;28;20014;-37
2022/01/24 09:32:00;;;;;;;13.40;10.07;;;18.90;31.00;;;;;;5076278;28;20012;-38
2022/01/24 09:34:28;;;;;;;28.50;11.05;;;19.00;30.80;;;;;;5059995;28;20020;-37
2022/01/24 09:36:54;;;;;;;16.20;10.40;;;19.00;30.60;;;;;;5076403;28;20017;-37
2022/01/24 09:39:23;;;;;;;17.83;10.75;;;19.10;30.50;;;;;;5094697;28;20028;-37
2022/01/24 09:41:51;;;;;;;16.02;10.18;;;19.20;30.40;;;;;;5094968;28;20061;-37
2022/01/24 09:44:19;;;;;;;15.85;10.25;;;19.20;30.30;;;;;;5076914;28;20020;-38
2022/01/24 09:46:46;;;;;;;13.10;10.35;;;19.20;30.20;;;;;;5076651;28;20034;-38
2022/01/24 09:49:15;;;;;;;14.05;9.85;;;19.10;30.10;;;;;;5076566;28;20013;-37
2022/01/24 09:51:44;;;;;;;14.75;11.00;;;19.20;30.20;;;;;;5094111;28;20015;-44
2022/01/24 09:54:11;;;;;;;12.55;9.90;;;19.10;30.30;;;;;;5076232;28;20040;-38
2022/01/24 09:56:36;;;;;;;15.00;10.48;;;19.10;30.20;;;;;;5059620;28;20012;-39
2022/01/24 09:59:08;;;;;;;12.23;9.38;;;19.10;30.00;;;;;;5075968;28;20363;-39
2022/01/24 10:01:43;;;;;;;13.57;10.27;;;19.10;30.10;;;;;;5093980;28;20016;-40
2022/01/24 10:04:20;;;;;;;11.63;9.15;;;19.20;30.00;;;;;;5076701;28;20019;-38
2022/01/24 10:07:06;;;;;;;14.90;10.18;;;19.10;30.60;;;;;;5096218;28;20020;-38
2022/01/24 10:09:36;;;;;;;13.85;10.70;;;19.00;30.20;;;;;;5077808;28;20009;-40
2022/01/24 10:12:05;;;;;;;14.55;9.43;;;19.10;30.00;;;;;;5093759;28;20024;-42
2022/01/24 10:17:30;;;;;;;13.25;9.38;;;19.00;30.00;;;;;;5093787;28;20019;-38
2022/01/24 10:19:56;;;;;;;14.90;9.27;;;19.00;30.00;;;;;;5094079;28;20019;-40
2022/01/24 10:22:24;;;;;;;12.63;9.88;;;19.00;30.00;;;;;;5059904;28;20024;-40
2022/01/24 10:24:56;;;;;;;11.82;9.48;;;19.00;30.00;;;;;;5076245;28;20016;-40
2022/01/24 10:27:29;;;;;;;13.82;9.70;;;19.10;30.00;;;;;;5093951;28;20028;-39
2022/01/24 10:29:57;;;;;;;11.85;9.43;;;19.10;29.90;;;;;;5093950;28;20020;-39
2022/01/24 10:32:30;;;;;;;12.38;10.13;;;19.10;29.90;;;;;;5058725;28;20047;-39
2022/01/24 10:34:56;;;;;;;13.30;10.07;;;19.20;29.80;;;;;;5059520;28;20024;-36
2022/01/24 10:37:22;;;;;;;12.88;10.43;;;19.30;29.80;;;;;;5059119;28;20081;-36
2022/01/24 10:39:57;;;;;;;15.45;10.50;;;19.20;29.70;;;;;;5075770;28;20021;-36
2022/01/24 10:45:00;;;;;;;14.73;10.02;;;19.20;29.70;;;;;;5076141;28;20035;-37
2022/01/24 10:47:31;;;;;;;15.20;9.77;;;19.20;29.70;;;;;;5075757;28;20023;-37
2022/01/24 10:49:58;;;;;;;12.75;10.32;;;19.10;29.90;;;;;;5076542;28;20073;-37
2022/01/24 10:52:30;;;;;;;15.10;10.27;;;19.10;29.90;;;;;;5093469;28;20052;-37
2022/01/24 10:55:15;;;;;;;12.57;9.50;;;19.20;29.90;;;;;;5093322;28;20089;-37
2022/01/24 10:57:43;;;;;;;15.02;10.35;;;19.20;30.00;;;;;;5075265;28;20012;-37
2022/01/24 11:00:10;;;;;;;14.32;10.75;;;19.10;29.90;;;;;;5076654;28;20096;-38
2022/01/24 11:02:40;;;;;;;14.45;10.57;;;19.10;30.00;;;;;;5096471;28;20020;-38
2022/01/24 11:05:13;;;;;;;14.40;10.73;;;19.10;29.90;;;;;;5076963;28;20008;-38
2022/01/24 11:07:52;;;;;;;14.55;10.77;;;19.20;29.80;;;;;;5058584;28;20020;-38
2022/01/24 11:10:18;;;;;;;12.48;10.05;;;19.20;29.80;;;;;;5075893;28;20043;-38
2022/01/24 11:12:44;;;;;;;14.15;10.93;;;19.20;29.70;;;;;;5059180;28;20039;-38
2022/01/24 11:15:11;;;;;;;16.00;10.98;;;19.20;29.80;;;;;;5076101;28;20016;-37
2022/01/24 11:17:37;;;;;;;13.13;10.55;;;19.30;29.80;;;;;;5075963;28;20038;-37
2022/01/24 11:20:04;;;;;;;15.98;11.13;;;19.30;29.70;;;;;;5079133;28;20039;-37
2022/01/24 11:22:33;;;;;;;13.40;10.10;;;19.20;29.80;;;;;;5080560;28;20044;-38
2022/01/24 11:25:06;;;;;;;14.85;11.45;;;19.30;29.80;;;;;;5080273;28;20032;-39
2022/01/24 11:27:32;;;;;;;17.05;10.70;;;19.20;29.80;;;;;;5079904;28;20479;-38
2022/01/24 11:30:01;;;;;;;19.13;10.98;;;19.10;29.80;;;;;;5080218;28;20065;-38
2022/01/24 11:32:38;;;;;;;17.70;11.93;;;19.10;29.90;;;;;;5104881;28;20020;-38
2022/01/24 11:35:05;;;;;;;14.35;10.60;;;19.20;29.80;;;;;;5099033;28;20065;-39
2022/01/24 11:37:32;;;;;;;14.88;11.02;;;19.20;29.80;;;;;;5079859;28;20019;-39
2022/01/24 11:39:58;;;;;;;16.35;11.20;;;19.20;29.80;;;;;;5096820;28;20091;-39
2022/01/24 11:42:29;;;;;;;14.82;11.10;;;19.10;29.90;;;;;;5078261;28;20446;-38
2022/01/24 11:44:58;;;;;;;15.45;11.60;;;19.00;30.00;;;;;;5079594;28;20016;-39
2022/01/24 11:47:26;;;;;;;15.18;11.73;;;18.90;30.10;;;;;;5095801;28;20419;-39
2022/01/24 11:49:53;;;;;;;24.58;12.95;;;18.70;30.50;;;;;;5096122;28;20038;-47
2022/01/24 11:52:31;;;;;;;25.00;11.55;;;18.90;31.90;;;;;;5096400;28;20028;-39
2022/01/24 11:55:31;;;;;;;24.45;11.82;;;18.80;33.30;;;;;;5096471;28;20048;-39
2022/01/24 11:57:50;;;;;;;21.88;10.27;;;19.10;32.80;;;;;;5095437;28;20096;-40
2022/01/24 12:00:25;;;;;;;21.88;10.93;;;19.50;32.30;;;;;;5078788;28;20073;-40
2022/01/24 12:02:59;;;;;;;23.25;11.07;;;19.60;32.10;;;;;;5096112;28;20020;-38
2022/01/24 12:05:29;;;;;;;21.55;10.68;;;19.80;31.90;;;;;;5061083;28;20110;-38
2022/01/24 12:08:07;;;;;;;18.60;10.48;;;19.90;31.80;;;;;;5060762;28;20016;-38
2022/01/24 12:10:36;;;;;;;15.90;10.50;;;20.00;31.50;;;;;;5077535;28;20012;-37
2022/01/24 12:13:04;;;;;;;20.90;10.48;;;20.10;31.40;;;;;;5095668;28;20149;-38
2022/01/24 12:15:36;;;;;;;27.98;14.07;;;20.20;31.20;;;;;;5076794;28;20055;-43
2022/01/24 12:18:12;;;;;;;34.15;23.15;;;20.20;31.20;;;;;;5077573;28;20095;-42
2022/01/24 12:20:40;;;;;;;35.92;24.63;;;20.30;31.20;;;;;;5079037;28;20455;-39
2022/01/24 12:23:25;;;;;;;28.60;22.15;;;20.40;31.40;;;;;;5095207;28;20165;-40
2022/01/24 12:26:02;;;;;;;27.83;21.00;;;20.50;31.40;;;;;;5095346;28;20066;-40
2022/01/24 12:28:29;;;;;;;30.85;20.33;;;20.60;31.30;;;;;;5078413;28;20048;-39
2022/01/24 12:31:10;;;;;;;31.83;20.15;;;20.80;31.00;;;;;;5095505;28;20012;-39
2022/01/24 12:33:53;;;;;;;27.67;19.75;;;20.90;31.10;;;;;;5095255;28;20028;-39
2022/01/24 12:36:47;;;;;;;29.40;18.98;;;21.00;31.00;;;;;;5095107;28;20019;-39
2022/01/24 12:39:20;;;;;;;26.95;19.05;;;21.10;31.00;;;;;;5095440;28;20120;-41
2022/01/24 12:41:59;;;;;;;24.08;18.02;;;21.20;31.10;;;;;;5061283;28;20008;-39
2022/01/24 12:47:08;;;;;;;28.65;16.10;;;21.00;31.30;;;;;;5078311;28;20031;-40
2022/01/24 12:49:39;;;;;;;39.50;14.88;;;20.90;31.10;;;;;;5060438;28;20404;-40
2022/01/24 12:52:06;;;;;;;25.13;13.40;;;20.90;31.20;;;;;;5095896;28;20083;-39
2022/01/24 12:54:34;;;;;;;20.80;12.90;;;20.80;31.60;;;;;;5077392;28;20037;-41
2022/01/24 12:57:06;;;;;;;18.42;11.23;;;20.70;31.00;;;;;;5077656;28;20014;-39
2022/01/24 12:59:41;;;;;;;19.13;11.60;;;20.70;30.90;;;;;;5077394;28;20115;-42
2022/01/24 13:02:09;;;;;;;17.33;10.60;;;20.70;30.40;;;;;;5060571;28;20012;-48
2022/01/24 13:04:40;;;;;;;17.35;10.95;;;20.80;30.30;;;;;;5077367;28;20016;-42
2022/01/24 13:07:08;;;;;;;21.58;10.90;;;20.70;30.20;;;;;;5077080;28;20386;-40
2022/01/24 13:09:37;;;;;;;15.55;10.48;;;20.70;30.10;;;;;;5060771;28;20519;-40
2022/01/24 13:12:10;;;;;;;16.63;10.60;;;20.70;30.30;;;;;;5078396;28;20008;-40
2022/01/24 13:14:56;;;;;;;14.60;10.07;;;20.70;30.40;;;;;;5077367;28;20021;-37
2022/01/24 13:36:34;;;;;;;31.10;10.35;;;20.50;31.30;;;;;;4992659;28;20021;-37
2022/01/24 13:39:46;;;;;;;23.45;10.30;;;20.50;31.90;;;;;;4960063;28;20026;-37
2022/01/24 13:42:18;;;;;;;22.75;9.73;;;20.50;32.30;;;;;;4991957;28;20114;-37
2022/01/24 13:44:47;;;;;;;18.20;9.20;;;20.60;32.40;;;;;;4976033;28;20042;-38
2022/01/24 13:47:13;;;;;;;22.92;9.52;;;20.70;32.70;;;;;;4976346;28;20051;-38
2022/01/24 13:49:39;;;;;;;19.90;9.55;;;20.70;32.30;;;;;;4992251;28;20570;-38
2022/01/24 13:52:07;;;;;;;23.05;10.10;;;20.80;32.10;;;;;;4992614;28;20026;-37
2022/01/24 13:54:35;;;;;;;21.80;9.65;;;20.80;32.00;;;;;;4976172;28;20050;-36
2022/01/24 13:57:04;;;;;;;18.75;9.45;;;20.80;32.10;;;;;;4992185;28;20115;-38
2022/01/24 13:59:31;;;;;;;22.40;10.20;;;20.90;31.90;;;;;;4992772;28;20099;-39
2022/01/24 14:02:09;;;;;;;15.00;9.40;;;20.90;31.90;;;;;;5012358;28;20277;-40
2022/01/24 14:04:35;;;;;;;15.52;8.88;;;20.90;31.90;;;;;;5093835;28;20052;-38
2022/01/24 14:07:21;;;;;;;12.20;8.77;;;20.90;31.90;;;;;;5093954;28;20044;-38
2022/01/24 14:09:52;;;;;;;15.82;9.10;;;21.00;31.70;;;;;;5059890;28;20020;-38
2022/01/24 14:12:25;;;;;;;16.52;9.02;;;21.00;31.70;;;;;;5075680;28;20024;-37
2022/01/24 14:15:17;;;;;;;16.92;8.57;;;21.00;31.80;;;;;;5075752;28;20024;-39
2022/01/24 14:20:16;;;;;;;23.67;10.02;;;21.00;31.90;;;;;;5095494;28;20031;-37
2022/01/24 14:22:53;;;;;;;19.33;9.93;;;20.90;31.00;;;;;;5078546;28;20023;-38
2022/01/24 14:25:32;;;;;;;20.70;9.02;;;21.00;30.50;;;;;;5079660;28;20530;-38
2022/01/24 14:28:09;;;;;;;17.65;8.32;;;21.10;30.20;;;;;;5078415;28;20016;-38
2022/01/24 14:30:40;;;;;;;15.88;8.32;;;21.20;30.00;;;;;;5078073;28;20061;-38
2022/01/24 14:33:14;;;;;;;16.10;8.10;;;21.40;29.90;;;;;;5095033;28;20028;-39
2022/01/24 14:35:54;;;;;;;22.13;7.55;;;21.60;29.70;;;;;;5077660;28;20027;-38
2022/01/24 14:38:37;;;;;;;10.30;6.80;;;21.80;29.60;;;;;;5094921;28;20020;-43
2022/01/24 14:41:18;;;;;;;22.00;6.85;;;21.80;29.40;;;;;;5077169;28;20475;-38
2022/01/24 14:46:35;;;;;;;14.48;6.60;;;22.00;29.30;;;;;;5079304;28;20085;-40
2022/01/24 14:49:04;;;;;;;14.18;6.68;;;22.00;29.30;;;;;;5093676;28;20027;-39
2022/01/24 14:51:32;;;;;;;;;;;22.10;29.30;;;;;;5076321;28;20028;-38
2022/01/24 14:54:00;;;;;;;14.90;6.78;;;22.00;29.20;;;;;;5092999;28;19923;-38
2022/01/24 14:56:26;;;;;;;13.93;6.47;;;22.10;29.30;;;;;;5094173;28;20069;-38
2022/01/24 14:58:52;;;;;;;12.73;6.20;;;22.10;29.20;;;;;;5094438;28;20046;-38
2022/01/24 15:01:19;;;;;;;14.55;6.35;;;22.10;29.20;;;;;;5094313;28;20368;-38